LGAVLGKF

Guest
Details From LGAV - Athens Intl Airport Elefterios Venizel
To LGKF - Kefallinia
Flight Number -
Tags generated
Created
Modified
Stats Distance 163 nm / 303 km
Max Altitude 21,200 ft / 6,462 m
Waypoints 3
Social Downloads 0
Likes 0
Share VATSIM

Download

Looking for another format? Having issues loading an existing format? Contact us
Advertisement - Login to hide

Notes

Basic altitude profile: - Ascent Rate: 2500ft/min - Ascent Speed: 250kts - Cruise Altitude: 35000ft - Cruise Speed: 420kts - Descent Rate: 1500ft/min - Descent Speed: 250kts Options: - Use NATs: no - Use PACOTS: no - Use low airways: yes - Use high airways: yes

Route

LGAV PIKAD LGKF

ID Type Via Altitude Latitude Longitude Leg Dist Tot Dist Heading (true) Name
O LGAV APT - 0 ft / 0 m 37.93636˚ 23.94447˚ - 0 nm - Athens Intl Airport Elefterios Venizel
PIKAD FIX - 21,200 ft / 6,462 m 38.06139˚ 22.69778˚ 59 nm 59 nm 278° / 277° -
O LGKF APT - 0 ft / 0 m 38.12007˚ 20.50048˚ 103 nm 163 nm 273° / 271° Kefallinia

Altitude Profile

Advertisement - Login to hide

Weather


0- 5 10 15 20 25 30 35+ Temperature / ° C

Clouds and Precipitation
Forecast for 2018-04-25 18:00 UTC. Updated 3 hours ago

Ground ~20,000 ft ~40,000 ft Winds

LGAV

Details ICAO LGAV (ATH)
Name Athens Intl Airport Elefterios Venizel
Region Greece
Timezone Europe/Athens (UTC+3.0)
Stats Elevation 308 ft / 94 m (AMSL)
Location 37.936357° 23.944470°
Runways 2
Magnetic Variation 4.519° E

METAR

LGAV 251950Z 29004KT CAVOK 15/08 Q1015 NOSIG

Decode

TAF

TAF TAF LGAV 251700Z 2518/2618 VRB05KT 9999 FEW020 BECMG 2606/2608 02010KT BECMG 2616/2618 VRB05KT

Decode

Departure Runways

ID Width Length Bearing (true) Bearing (mag) Surface Threshold Offset Overrun Length
03L 148 ft / 45 m 12,474 ft / 3,802 m 36.51° 31.99° Asphalt 984 ft / 300 m 393 ft / 120 m
03R 148 ft / 45 m 13,131 ft / 4,002 m 36.52° 32.00° Asphalt 984 ft / 300 m 393 ft / 120 m
21L 148 ft / 45 m 13,131 ft / 4,002 m 216.54° 212.02° Asphalt 984 ft / 300 m 393 ft / 120 m
21R 148 ft / 45 m 12,474 ft / 3,802 m 216.53° 212.01° Asphalt 984 ft / 300 m 393 ft / 120 m

LGKF

Details ICAO LGKF (EFL)
Name Kefallinia
Region Greece
Timezone Europe/Athens (UTC+3.0)
Stats Elevation 59 ft / 18 m (AMSL)
Location 38.120069° 20.500480°
Runways 1
Magnetic Variation 4.087° E

METAR

LGKF 251850Z 00000KT 9999 FEW012 17/14 Q1016

Decode

TAF

Not found

Destination Runways

ID Width Length Bearing (true) Bearing (mag) Surface Threshold Offset Overrun Length
14 148 ft / 45 m 7,979 ft / 2,432 m 146.39° 142.30° Asphalt 0 ft / 0 m 180 ft / 55 m
32 148 ft / 45 m 7,979 ft / 2,432 m 326.40° 322.31° Asphalt 912 ft / 278 m 100 ft / 30 m

Popular Alternatives